createdAt,value
2019-03-30T00:00:50.010Z,1011.56
2019-03-30T00:01:49.999Z,1011.55
2019-03-30T00:02:50.012Z,1011.53
2019-03-30T00:03:50.004Z,1011.58
2019-03-30T00:04:49.970Z,1011.55
2019-03-30T00:05:49.956Z,1011.54
2019-03-30T00:06:49.946Z,1011.52
2019-03-30T00:07:49.932Z,1011.50
2019-03-30T00:08:49.931Z,1011.55
2019-03-30T00:09:49.915Z,1011.53
2019-03-30T00:10:49.902Z,1011.57
2019-03-30T00:11:49.896Z,1011.52
2019-03-30T00:12:49.879Z,1011.52
2019-03-30T00:13:49.877Z,1011.51
2019-03-30T00:14:49.877Z,1011.52
2019-03-30T00:15:49.841Z,1011.47
2019-03-30T00:16:49.828Z,1011.51
2019-03-30T00:17:49.818Z,1011.47
2019-03-30T00:18:49.809Z,1011.48
2019-03-30T00:19:49.798Z,1011.45
2019-03-30T00:20:49.815Z,1011.44
2019-03-30T00:21:49.771Z,1011.44
2019-03-30T00:22:49.763Z,1011.38
2019-03-30T00:23:49.754Z,1011.41
2019-03-30T00:24:49.738Z,1011.39
2019-03-30T00:25:49.731Z,1011.42
2019-03-30T00:26:49.731Z,1011.43
2019-03-30T00:27:49.708Z,1011.40
2019-03-30T00:28:49.696Z,1011.41
2019-03-30T00:29:49.687Z,1011.39
2019-03-30T00:30:49.892Z,1011.36
2019-03-30T00:31:49.675Z,1011.38
2019-03-30T00:32:49.650Z,1011.36
2019-03-30T00:33:49.637Z,1011.39
2019-03-30T00:34:49.626Z,1011.35
2019-03-30T00:35:49.615Z,1011.34
2019-03-30T00:36:49.603Z,1011.33
2019-03-30T00:37:49.601Z,1011.34
2019-03-30T00:38:49.603Z,1011.33
2019-03-30T00:39:49.571Z,1011.31
2019-03-30T00:40:49.769Z,1011.33
2019-03-30T00:41:49.547Z,1011.32
2019-03-30T00:42:49.543Z,1011.28
2019-03-30T00:43:49.531Z,1011.28
2019-03-30T00:44:49.535Z,1011.25
2019-03-30T00:45:49.508Z,1011.25
2019-03-30T00:46:49.495Z,1011.27
2019-03-30T00:47:49.481Z,1011.26
2019-03-30T00:48:49.787Z,1011.26
2019-03-30T00:49:50.264Z,1011.23
2019-03-30T00:50:49.458Z,1011.19
2019-03-30T00:51:49.463Z,1011.20
2019-03-30T00:52:49.427Z,1011.19
2019-03-30T00:53:49.411Z,1011.18
2019-03-30T00:54:49.400Z,1011.19
2019-03-30T00:55:49.395Z,1011.18
2019-03-30T00:56:49.380Z,1011.21
2019-03-30T00:57:49.380Z,1011.20
2019-03-30T00:58:49.357Z,1011.21
2019-03-30T00:59:49.347Z,1011.18
2019-03-30T01:00:49.357Z,1011.19
2019-03-30T01:01:49.324Z,1011.21
2019-03-30T01:02:49.328Z,1011.23
2019-03-30T01:03:49.312Z,1011.22
2019-03-30T01:04:49.294Z,1011.18
2019-03-30T01:05:49.276Z,1011.20
2019-03-30T01:06:49.264Z,1011.21
2019-03-30T01:07:49.254Z,1011.18
2019-03-30T01:08:49.260Z,1011.16
2019-03-30T01:09:49.236Z,1011.18
2019-03-30T01:10:49.232Z,1011.14
2019-03-30T01:11:49.210Z,1011.15
2019-03-30T01:12:49.199Z,1011.14
2019-03-30T01:13:49.189Z,1011.11
2019-03-30T01:14:49.175Z,1011.14
2019-03-30T01:15:49.187Z,1011.13
2019-03-30T01:16:49.154Z,1011.09
2019-03-30T01:17:49.144Z,1011.11
2019-03-30T01:18:49.129Z,1011.08
2019-03-30T01:20:01.967Z,1011.09
2019-03-30T01:20:50.137Z,1011.08
2019-03-30T01:21:49.099Z,1011.08
2019-03-30T01:22:49.091Z,1011.07
2019-03-30T01:23:49.071Z,1011.06
2019-03-30T01:24:49.060Z,1011.11
2019-03-30T01:25:49.052Z,1011.02
2019-03-30T01:26:49.048Z,1011.04
2019-03-30T01:27:49.027Z,1011.02
2019-03-30T01:28:49.026Z,1011.00
2019-03-30T01:29:49.005Z,1011.04
2019-03-30T01:30:48.996Z,1011.07
2019-03-30T01:31:49.000Z,1011.03
2019-03-30T01:32:48.987Z,1010.99
2019-03-30T01:33:48.974Z,1011.05
2019-03-30T01:34:48.951Z,1011.03
2019-03-30T01:35:48.939Z,1011.02
2019-03-30T01:36:48.931Z,1011.03
2019-03-30T01:37:48.916Z,1011.04
2019-03-30T01:38:48.904Z,1011.01
2019-03-30T01:39:48.904Z,1011.01
2019-03-30T01:40:48.887Z,1011.01
2019-03-30T01:41:48.873Z,1011.01
2019-03-30T01:42:48.862Z,1011.04
2019-03-30T01:43:48.851Z,1011.04
2019-03-30T01:44:48.852Z,1011.00
2019-03-30T01:45:48.828Z,1010.99
2019-03-30T01:46:48.815Z,1011.02
2019-03-30T01:47:48.808Z,1011.06
2019-03-30T01:48:48.795Z,1011.01
2019-03-30T01:49:48.783Z,1011.01
2019-03-30T01:50:48.790Z,1011.01
2019-03-30T01:51:48.758Z,1010.99
2019-03-30T01:52:48.751Z,1010.94
2019-03-30T01:53:48.732Z,1010.97
2019-03-30T01:54:48.723Z,1010.93
2019-03-30T01:55:48.713Z,1010.87
2019-03-30T01:56:48.713Z,1010.93
2019-03-30T01:57:48.688Z,1010.90
2019-03-30T01:58:48.680Z,1010.93
2019-03-30T01:59:48.668Z,1010.91
2019-03-30T02:00:48.657Z,1010.88
2019-03-30T02:01:48.660Z,1010.88
2019-03-30T02:02:48.635Z,1010.88
2019-03-30T02:03:48.667Z,1010.85
2019-03-30T02:04:48.612Z,1010.86
2019-03-30T02:05:48.603Z,1010.84
2019-03-30T02:06:48.585Z,1010.83
2019-03-30T02:07:48.588Z,1010.79
2019-03-30T02:08:48.567Z,1010.77
2019-03-30T02:09:48.553Z,1010.80
2019-03-30T02:10:48.549Z,1010.77
2019-03-30T02:11:48.535Z,1010.76
2019-03-30T02:12:48.536Z,1010.75
2019-03-30T02:13:48.520Z,1010.77
2019-03-30T02:14:48.521Z,1010.71
2019-03-30T02:15:48.488Z,1010.76
2019-03-30T02:16:48.474Z,1010.70
2019-03-30T02:17:48.463Z,1010.74
2019-03-30T02:18:48.464Z,1010.70
2019-03-30T02:19:48.443Z,1010.72
2019-03-30T02:20:48.427Z,1010.71
2019-03-30T02:21:48.418Z,1010.70
2019-03-30T02:22:48.407Z,1010.68
2019-03-30T02:23:48.410Z,1010.64
2019-03-30T02:24:48.386Z,1010.67
2019-03-30T02:25:48.377Z,1010.63
2019-03-30T02:26:48.364Z,1010.64
2019-03-30T02:27:48.355Z,1010.63
2019-03-30T02:28:48.343Z,1010.64
2019-03-30T02:29:48.345Z,1010.66
2019-03-30T02:30:48.323Z,1010.61
2019-03-30T02:31:48.311Z,1010.61
2019-03-30T02:32:48.300Z,1010.64
2019-03-30T02:33:48.288Z,1010.58
2019-03-30T02:34:48.297Z,1010.58
2019-03-30T02:35:48.266Z,1010.58
2019-03-30T02:36:48.259Z,1010.56
2019-03-30T02:37:48.239Z,1010.58
2019-03-30T02:38:48.230Z,1010.58
2019-03-30T02:39:48.232Z,1010.62
2019-03-30T02:40:48.205Z,1010.56
2019-03-30T02:41:48.336Z,1010.57
2019-03-30T02:42:48.271Z,1010.54
2019-03-30T02:43:48.172Z,1010.54
2019-03-30T02:44:48.161Z,1010.51
2019-03-30T02:45:48.173Z,1010.50
2019-03-30T02:46:48.142Z,1010.48
2019-03-30T02:47:48.131Z,1010.51
2019-03-30T02:48:48.120Z,1010.45
2019-03-30T02:49:48.108Z,1010.45
2019-03-30T02:50:50.321Z,1010.39
2019-03-30T02:51:48.102Z,1010.44
2019-03-30T02:52:48.072Z,1010.41
2019-03-30T02:53:48.064Z,1010.40
2019-03-30T02:54:48.048Z,1010.36
2019-03-30T02:55:48.051Z,1010.39
2019-03-30T02:56:48.033Z,1010.32
2019-03-30T02:57:48.041Z,1010.34
2019-03-30T02:58:48.004Z,1010.34
2019-03-30T02:59:47.999Z,1010.31
2019-03-30T03:00:47.984Z,1010.27
2019-03-30T03:01:47.970Z,1010.31
2019-03-30T03:02:47.960Z,1010.29
2019-03-30T03:03:47.957Z,1010.28
2019-03-30T03:04:47.943Z,1010.23
2019-03-30T03:05:47.930Z,1010.25
2019-03-30T03:06:47.920Z,1010.25
2019-03-30T03:07:47.908Z,1010.19
2019-03-30T03:08:48.019Z,1010.21
2019-03-30T03:09:47.896Z,1010.19
2019-03-30T03:10:47.885Z,1010.19
2019-03-30T03:11:47.858Z,1010.18
2019-03-30T03:12:47.847Z,1010.22
2019-03-30T03:13:47.857Z,1010.18
2019-03-30T03:14:47.837Z,1010.20
2019-03-30T03:15:47.821Z,1010.21
2019-03-30T03:16:47.802Z,1010.25
2019-03-30T03:17:47.795Z,1010.23
2019-03-30T03:18:47.796Z,1010.19
2019-03-30T03:19:47.774Z,1010.16
2019-03-30T03:21:06.105Z,1010.18
2019-03-30T03:21:48.745Z,1010.19
2019-03-30T03:22:47.737Z,1010.12
2019-03-30T03:23:47.727Z,1010.16
2019-03-30T03:24:47.716Z,1010.14
2019-03-30T03:25:47.705Z,1010.09
2019-03-30T03:26:47.703Z,1010.13
2019-03-30T03:27:47.696Z,1010.12
2019-03-30T03:28:47.665Z,1010.12
2019-03-30T03:29:47.668Z,1010.07
2019-03-30T03:30:47.644Z,1010.06
2019-03-30T03:31:47.634Z,1010.06
2019-03-30T03:32:47.632Z,1010.04
2019-03-30T03:33:47.642Z,1010.06
2019-03-30T03:34:47.604Z,1010.03
2019-03-30T03:35:47.586Z,1010.04
2019-03-30T03:36:47.582Z,1009.96
2019-03-30T03:37:47.567Z,1009.98
2019-03-30T03:38:47.568Z,1009.96
2019-03-30T03:39:47.561Z,1009.97
2019-03-30T03:40:47.536Z,1009.94
2019-03-30T03:41:47.530Z,1009.99
2019-03-30T03:42:47.604Z,1009.92
2019-03-30T03:43:47.501Z,1009.96
2019-03-30T03:44:47.508Z,1009.91
2019-03-30T03:45:47.480Z,1009.86
2019-03-30T03:46:47.475Z,1009.88
2019-03-30T03:47:47.489Z,1009.90
2019-03-30T03:48:47.450Z,1009.87
2019-03-30T03:49:47.455Z,1009.82
2019-03-30T03:50:47.435Z,1009.87
2019-03-30T03:51:47.417Z,1009.83
2019-03-30T03:52:47.397Z,1009.84
2019-03-30T03:53:47.415Z,1009.83
2019-03-30T03:54:47.387Z,1009.81
2019-03-30T03:55:47.370Z,1009.89
2019-03-30T03:56:47.370Z,1009.79
2019-03-30T03:57:47.342Z,1009.86
2019-03-30T03:58:47.346Z,1009.81
2019-03-30T03:59:47.329Z,1009.82
2019-03-30T04:00:47.312Z,1009.83
2019-03-30T04:01:47.321Z,1009.86
2019-03-30T04:02:47.290Z,1009.82
2019-03-30T04:03:47.274Z,1009.76
2019-03-30T04:04:47.880Z,1009.79
2019-03-30T04:05:47.324Z,1009.77
2019-03-30T04:06:47.240Z,1009.74
2019-03-30T04:07:47.250Z,1009.74
2019-03-30T04:08:47.218Z,1009.75
2019-03-30T04:09:47.211Z,1009.70
2019-03-30T04:10:47.210Z,1009.70
2019-03-30T04:11:47.185Z,1009.71
2019-03-30T04:12:47.193Z,1009.70
2019-03-30T04:13:47.177Z,1009.69
2019-03-30T04:14:47.158Z,1009.71
2019-03-30T04:15:47.150Z,1009.67
2019-03-30T04:16:47.133Z,1009.64
2019-03-30T04:17:47.117Z,1009.64
2019-03-30T04:18:48.230Z,1009.60
2019-03-30T04:19:47.121Z,1009.58
2019-03-30T04:20:47.092Z,1009.57
2019-03-30T04:21:47.077Z,1009.56
2019-03-30T04:22:47.065Z,1009.52
2019-03-30T04:23:47.081Z,1009.57
2019-03-30T04:24:47.037Z,1009.55
2019-03-30T04:25:47.034Z,1009.57
2019-03-30T04:26:47.022Z,1009.54
2019-03-30T04:27:47.016Z,1009.53
2019-03-30T04:28:46.999Z,1009.53
2019-03-30T04:29:46.997Z,1009.53
2019-03-30T04:30:46.969Z,1009.53
2019-03-30T04:31:46.974Z,1009.49
2019-03-30T04:32:46.958Z,1009.51
2019-03-30T04:33:46.942Z,1009.52
2019-03-30T04:34:46.932Z,1009.54
2019-03-30T04:35:46.943Z,1009.51
2019-03-30T04:36:46.915Z,1009.52
2019-03-30T04:37:46.901Z,1009.54
2019-03-30T04:38:46.890Z,1009.56
2019-03-30T04:39:46.872Z,1009.51
2019-03-30T04:40:46.880Z,1009.48
2019-03-30T04:41:46.853Z,1009.53
2019-03-30T04:42:46.838Z,1009.53
2019-03-30T04:43:46.829Z,1009.50
2019-03-30T04:44:46.818Z,1009.53
2019-03-30T04:45:46.805Z,1009.46
2019-03-30T04:46:46.808Z,1009.48
2019-03-30T04:47:46.805Z,1009.48
2019-03-30T04:48:46.776Z,1009.48
2019-03-30T04:49:46.761Z,1009.44
2019-03-30T04:50:46.746Z,1009.44
2019-03-30T04:51:57.002Z,1009.44
2019-03-30T04:52:47.748Z,1009.43
2019-03-30T04:53:46.713Z,1009.42
2019-03-30T04:54:46.705Z,1009.43
2019-03-30T04:55:46.700Z,1009.42
2019-03-30T04:56:46.721Z,1009.46
2019-03-30T04:57:49.852Z,1009.40
2019-03-30T04:58:46.766Z,1009.41
2019-03-30T04:59:46.645Z,1009.45
2019-03-30T05:00:46.645Z,1009.43
2019-03-30T05:01:46.624Z,1009.44
2019-03-30T05:02:46.615Z,1009.45
2019-03-30T05:03:46.609Z,1009.47
2019-03-30T05:04:46.623Z,1009.45
2019-03-30T05:05:46.597Z,1009.43
2019-03-30T05:06:46.572Z,1009.40
2019-03-30T05:07:46.612Z,1009.38
2019-03-30T05:08:46.546Z,1009.39
2019-03-30T05:09:46.541Z,1009.36
2019-03-30T05:10:46.557Z,1009.39
2019-03-30T05:11:46.515Z,1009.36
2019-03-30T05:12:46.633Z,1009.43
2019-03-30T05:13:46.513Z,1009.39
2019-03-30T05:14:46.482Z,1009.36
2019-03-30T05:15:46.473Z,1009.36
2019-03-30T05:16:46.480Z,1009.32
2019-03-30T05:17:48.078Z,1009.33
2019-03-30T05:18:46.452Z,1009.32
2019-03-30T05:19:46.424Z,1009.36
2019-03-30T05:20:46.497Z,1009.38
2019-03-30T05:21:46.407Z,1009.33
2019-03-30T05:22:46.393Z,1009.39
2019-03-30T05:23:46.378Z,1009.43
2019-03-30T05:24:46.381Z,1009.39
2019-03-30T05:25:46.359Z,1009.38
2019-03-30T05:26:46.342Z,1009.38
2019-03-30T05:27:46.334Z,1009.38
2019-03-30T05:28:46.325Z,1009.37
2019-03-30T05:29:46.345Z,1009.36
2019-03-30T05:30:46.314Z,1009.30
2019-03-30T05:31:46.294Z,1009.34
2019-03-30T05:32:46.277Z,1009.34
2019-03-30T05:33:46.270Z,1009.35
2019-03-30T05:34:46.269Z,1009.38
2019-03-30T05:35:46.260Z,1009.32
2019-03-30T05:36:46.233Z,1009.33
2019-03-30T05:37:46.219Z,1009.36
2019-03-30T05:38:46.217Z,1009.35
2019-03-30T05:39:46.213Z,1009.39
2019-03-30T05:40:46.192Z,1009.31
2019-03-30T05:41:46.199Z,1009.33
2019-03-30T05:42:46.164Z,1009.35
2019-03-30T05:43:46.151Z,1009.32
2019-03-30T05:44:46.144Z,1009.35
2019-03-30T05:45:46.127Z,1009.31
2019-03-30T05:46:46.122Z,1009.32
2019-03-30T05:47:46.115Z,1009.30
2019-03-30T05:48:46.101Z,1009.33
2019-03-30T05:49:46.090Z,1009.38
2019-03-30T05:50:46.078Z,1009.31
2019-03-30T05:51:46.068Z,1009.34
2019-03-30T05:52:46.068Z,1009.35
2019-03-30T05:53:46.050Z,1009.32
2019-03-30T05:54:46.034Z,1009.30
2019-03-30T05:55:46.023Z,1009.34
2019-03-30T05:56:46.003Z,1009.31
2019-03-30T05:57:46.000Z,1009.33
2019-03-30T05:58:46.011Z,1009.34
2019-03-30T05:59:45.974Z,1009.24
2019-03-30T06:00:45.970Z,1009.26
2019-03-30T06:01:45.952Z,1009.29
2019-03-30T06:02:45.937Z,1009.26
2019-03-30T06:03:45.943Z,1009.27
2019-03-30T06:04:45.940Z,1009.30
2019-03-30T06:05:45.912Z,1009.27
2019-03-30T06:06:45.904Z,1009.27
2019-03-30T06:07:45.883Z,1009.26
2019-03-30T06:08:45.875Z,1009.29
2019-03-30T06:09:45.879Z,1009.30
2019-03-30T06:10:45.857Z,1009.24
2019-03-30T06:11:45.839Z,1009.21
2019-03-30T06:12:45.827Z,1009.26
2019-03-30T06:13:45.820Z,1009.27
2019-03-30T06:14:45.807Z,1009.27
2019-03-30T06:15:45.828Z,1009.24
2019-03-30T06:16:45.787Z,1009.25
2019-03-30T06:17:45.772Z,1009.22
2019-03-30T06:18:45.756Z,1009.24
2019-03-30T06:19:45.755Z,1009.27
2019-03-30T06:20:45.738Z,1009.24
2019-03-30T06:21:45.739Z,1009.26
2019-03-30T06:22:45.727Z,1009.23
2019-03-30T06:23:48.460Z,1009.22
2019-03-30T06:24:45.705Z,1009.23
2019-03-30T06:25:45.680Z,1009.20
2019-03-30T06:26:45.695Z,1009.20
2019-03-30T06:27:45.655Z,1009.17
2019-03-30T06:28:45.648Z,1009.19
2019-03-30T06:29:45.637Z,1009.16
2019-03-30T06:30:45.631Z,1009.16
2019-03-30T06:31:46.842Z,1009.20
2019-03-30T06:32:45.618Z,1009.14
2019-03-30T06:33:45.591Z,1009.18
2019-03-30T06:34:45.584Z,1009.17
2019-03-30T06:35:45.572Z,1009.17
2019-03-30T06:36:45.562Z,1009.19
2019-03-30T06:37:45.564Z,1009.20
2019-03-30T06:38:45.556Z,1009.16
2019-03-30T06:39:45.527Z,1009.16
2019-03-30T06:40:45.520Z,1009.24
2019-03-30T06:41:45.507Z,1009.19
2019-03-30T06:42:45.492Z,1009.21
2019-03-30T06:43:45.480Z,1009.24
2019-03-30T06:44:45.489Z,1009.21
2019-03-30T06:45:45.456Z,1009.23
2019-03-30T06:46:45.455Z,1009.22
2019-03-30T06:47:45.435Z,1009.23
2019-03-30T06:48:45.429Z,1009.27
2019-03-30T06:49:45.432Z,1009.29
2019-03-30T06:50:45.403Z,1009.26
2019-03-30T06:51:45.393Z,1009.28
2019-03-30T06:52:56.871Z,1009.29
2019-03-30T06:53:46.368Z,1009.27
2019-03-30T06:54:45.357Z,1009.28
2019-03-30T06:55:45.363Z,1009.27
2019-03-30T06:56:45.335Z,1009.21
2019-03-30T06:57:45.323Z,1009.22
2019-03-30T06:58:45.311Z,1009.22
2019-03-30T06:59:45.301Z,1009.25
2019-03-30T07:00:45.286Z,1009.23
2019-03-30T07:01:45.293Z,1009.26
2019-03-30T07:02:45.267Z,1009.23
2019-03-30T07:03:45.256Z,1009.22
2019-03-30T07:04:45.253Z,1009.20
2019-03-30T07:05:45.346Z,1009.21
2019-03-30T07:06:45.235Z,1009.26
2019-03-30T07:07:45.213Z,1009.24
2019-03-30T07:08:45.195Z,1009.25
2019-03-30T07:09:45.187Z,1009.31
2019-03-30T07:10:45.177Z,1009.23
2019-03-30T07:11:45.165Z,1009.23
2019-03-30T07:12:45.172Z,1009.26
2019-03-30T07:13:45.139Z,1009.25
2019-03-30T07:14:45.131Z,1009.24
2019-03-30T07:15:45.123Z,1009.22
2019-03-30T07:16:45.112Z,1009.23
2019-03-30T07:17:45.150Z,1009.22
2019-03-30T07:18:45.101Z,1009.20
2019-03-30T07:19:45.087Z,1009.22
2019-03-30T07:20:45.067Z,1009.21
2019-03-30T07:21:45.052Z,1009.20
2019-03-30T07:22:45.043Z,1009.20
2019-03-30T07:23:45.028Z,1009.22
2019-03-30T07:24:45.027Z,1009.21
2019-03-30T07:25:45.008Z,1009.14
2019-03-30T07:26:44.996Z,1009.15
2019-03-30T07:27:44.988Z,1009.18
2019-03-30T07:28:47.119Z,1009.15
2019-03-30T07:29:44.971Z,1009.14
2019-03-30T07:30:45.002Z,1009.18
2019-03-30T07:31:44.935Z,1009.14
2019-03-30T07:32:44.927Z,1009.17
2019-03-30T07:33:44.919Z,1009.18
2019-03-30T07:34:44.907Z,1009.22
2019-03-30T07:35:44.915Z,1009.18
2019-03-30T07:36:44.883Z,1009.14
2019-03-30T07:37:44.979Z,1009.13
2019-03-30T07:38:44.863Z,1009.17
2019-03-30T07:39:44.852Z,1009.13
2019-03-30T07:40:44.842Z,1009.14
2019-03-30T07:41:44.943Z,1009.09
2019-03-30T07:42:44.811Z,1009.13
2019-03-30T07:43:44.808Z,1009.16
2019-03-30T07:44:44.802Z,1009.13
2019-03-30T07:45:44.791Z,1009.16
2019-03-30T07:46:44.767Z,1009.15
2019-03-30T07:47:44.779Z,1009.15
2019-03-30T07:48:44.749Z,1009.12
2019-03-30T07:49:44.739Z,1009.15
2019-03-30T07:50:44.728Z,1009.14
2019-03-30T07:51:44.716Z,1009.10
2019-03-30T07:52:44.703Z,1009.09
2019-03-30T07:53:45.151Z,1009.06
2019-03-30T07:54:44.683Z,1009.02
2019-03-30T07:55:44.668Z,1009.02
2019-03-30T07:56:44.659Z,1008.99
2019-03-30T07:57:44.647Z,1009.00
2019-03-30T07:58:44.635Z,1008.97
2019-03-30T07:59:44.647Z,1008.94
2019-03-30T08:00:44.611Z,1008.91
2019-03-30T08:01:44.604Z,1008.96
2019-03-30T08:02:44.591Z,1008.96
2019-03-30T08:03:44.579Z,1009.00
2019-03-30T08:04:44.567Z,1009.01
2019-03-30T08:05:44.573Z,1008.98
2019-03-30T08:06:44.547Z,1009.02
2019-03-30T08:07:44.543Z,1008.96
2019-03-30T08:08:44.522Z,1009.01
2019-03-30T08:09:44.511Z,1008.94
2019-03-30T08:10:44.499Z,1008.96
2019-03-30T08:11:44.508Z,1008.96
2019-03-30T08:12:44.479Z,1008.95
2019-03-30T08:13:44.467Z,1008.97
2019-03-30T08:14:45.203Z,1008.92
2019-03-30T08:15:44.442Z,1008.98
2019-03-30T08:16:44.431Z,1008.96
2019-03-30T08:17:44.438Z,1008.95
2019-03-30T08:18:44.411Z,1008.96
2019-03-30T08:19:44.399Z,1008.91
2019-03-30T08:20:44.392Z,1008.90
2019-03-30T08:21:44.376Z,1008.92
2019-03-30T08:22:44.395Z,1008.93
2019-03-30T08:23:44.373Z,1008.90
2019-03-30T08:24:44.343Z,1008.92
2019-03-30T08:25:44.342Z,1008.90
2019-03-30T08:26:44.319Z,1008.89
2019-03-30T08:27:44.314Z,1008.97
2019-03-30T08:28:44.328Z,1008.94
2019-03-30T08:29:44.287Z,1008.95
2019-03-30T08:30:44.275Z,1008.94
2019-03-30T08:31:44.265Z,1008.88
2019-03-30T08:32:44.256Z,1008.96
2019-03-30T08:33:44.279Z,1008.89
2019-03-30T08:34:44.256Z,1008.94
2019-03-30T08:35:44.236Z,1008.87
2019-03-30T08:36:44.208Z,1008.87
2019-03-30T08:37:44.192Z,1008.87
2019-03-30T08:38:44.184Z,1008.81
2019-03-30T08:39:44.189Z,1008.85
2019-03-30T08:40:44.159Z,1008.82
2019-03-30T08:41:44.164Z,1008.85
2019-03-30T08:42:44.139Z,1008.80
2019-03-30T08:43:44.128Z,1008.83
2019-03-30T08:44:44.124Z,1008.82
2019-03-30T08:45:44.119Z,1008.81
2019-03-30T08:46:44.094Z,1008.79
2019-03-30T08:47:44.083Z,1008.74
2019-03-30T08:48:44.074Z,1008.75
2019-03-30T08:49:44.056Z,1008.78
2019-03-30T08:50:44.061Z,1008.75
2019-03-30T08:51:44.037Z,1008.73
2019-03-30T08:52:44.048Z,1008.72
2019-03-30T08:53:53.961Z,1008.74
2019-03-30T08:54:44.999Z,1008.73
2019-03-30T08:55:43.991Z,1008.69
2019-03-30T08:56:43.987Z,1008.75
2019-03-30T08:57:43.970Z,1008.71
2019-03-30T08:58:43.976Z,1008.74
2019-03-30T08:59:43.947Z,1008.73
2019-03-30T09:00:43.939Z,1008.75
2019-03-30T09:01:43.923Z,1008.71
2019-03-30T09:02:43.912Z,1008.69
2019-03-30T09:03:43.896Z,1008.66
2019-03-30T09:04:43.910Z,1008.68
2019-03-30T09:05:43.880Z,1008.68
2019-03-30T09:06:43.867Z,1008.67
2019-03-30T09:07:43.915Z,1008.64
2019-03-30T09:08:43.844Z,1008.67
2019-03-30T09:09:43.837Z,1008.66
2019-03-30T09:10:43.835Z,1008.63
2019-03-30T09:11:43.922Z,1008.65
2019-03-30T09:12:43.799Z,1008.66
2019-03-30T09:13:43.787Z,1008.67
2019-03-30T09:14:43.775Z,1008.75
2019-03-30T09:15:43.759Z,1008.79
2019-03-30T09:16:43.762Z,1008.73
2019-03-30T09:17:43.744Z,1008.73
2019-03-30T09:18:43.732Z,1008.74
2019-03-30T09:19:43.720Z,1008.72
2019-03-30T09:20:43.703Z,1008.70
2019-03-30T09:21:43.707Z,1008.70
2019-03-30T09:22:43.686Z,1008.70
2019-03-30T09:23:43.671Z,1008.72
2019-03-30T09:24:43.659Z,1008.66
2019-03-30T09:25:43.666Z,1008.65
2019-03-30T09:26:43.639Z,1008.64
2019-03-30T09:27:43.634Z,1008.63
2019-03-30T09:28:43.615Z,1008.66
2019-03-30T09:29:43.603Z,1008.61
2019-03-30T09:30:43.596Z,1008.61
2019-03-30T09:31:43.578Z,1008.58
2019-03-30T09:32:45.195Z,1008.60
2019-03-30T09:33:43.556Z,1008.63
2019-03-30T09:34:43.543Z,1008.62
2019-03-30T09:35:43.537Z,1008.66
2019-03-30T09:36:43.659Z,1008.60
2019-03-30T09:37:43.514Z,1008.62
2019-03-30T09:38:43.519Z,1008.66
2019-03-30T09:39:43.500Z,1008.62
2019-03-30T09:40:43.481Z,1008.62
2019-03-30T09:41:43.469Z,1008.59
2019-03-30T09:42:43.458Z,1008.61
2019-03-30T09:43:43.448Z,1008.53
2019-03-30T09:44:43.453Z,1008.54
2019-03-30T09:45:43.427Z,1008.47
2019-03-30T09:46:43.410Z,1008.46
2019-03-30T09:47:43.402Z,1008.45
2019-03-30T09:48:43.397Z,1008.48
2019-03-30T09:49:43.374Z,1008.48
2019-03-30T09:50:43.380Z,1008.49
2019-03-30T09:51:43.354Z,1008.49
2019-03-30T09:52:43.344Z,1008.51
2019-03-30T09:53:43.330Z,1008.44
2019-03-30T09:54:43.322Z,1008.43
2019-03-30T09:55:43.311Z,1008.42
2019-03-30T09:56:43.308Z,1008.47
2019-03-30T09:57:43.293Z,1008.46
2019-03-30T09:58:43.274Z,1008.47
2019-03-30T09:59:43.264Z,1008.48
2019-03-30T10:00:43.254Z,1008.41
2019-03-30T10:01:43.296Z,1008.37
2019-03-30T10:02:43.233Z,1008.40
2019-03-30T10:03:43.224Z,1008.41
2019-03-30T10:04:43.208Z,1008.35
2019-03-30T10:05:43.196Z,1008.35
2019-03-30T10:06:43.182Z,1008.32
2019-03-30T10:07:43.186Z,1008.31
2019-03-30T10:08:43.167Z,1008.34
2019-03-30T10:09:43.180Z,1008.32
2019-03-30T10:10:43.143Z,1008.27
2019-03-30T10:11:43.131Z,1008.33
2019-03-30T10:12:43.135Z,1008.28
2019-03-30T10:13:43.234Z,1008.26
2019-03-30T10:14:43.099Z,1008.21
2019-03-30T10:15:43.087Z,1008.23
2019-03-30T10:16:43.073Z,1008.18
2019-03-30T10:17:43.065Z,1008.16
2019-03-30T10:18:43.065Z,1008.17
2019-03-30T10:19:43.045Z,1008.16
2019-03-30T10:20:43.027Z,1008.17
2019-03-30T10:21:43.020Z,1008.15
2019-03-30T10:22:43.010Z,1008.11
2019-03-30T10:23:42.994Z,1008.11
2019-03-30T10:24:42.996Z,1008.15
2019-03-30T10:25:42.972Z,1008.12
2019-03-30T10:26:42.959Z,1008.09
2019-03-30T10:27:42.947Z,1008.12
2019-03-30T10:28:42.943Z,1008.06
2019-03-30T10:29:42.944Z,1008.01
2019-03-30T10:30:42.916Z,1007.93
2019-03-30T10:31:42.913Z,1007.98
2019-03-30T10:32:42.895Z,1008.00
2019-03-30T10:33:42.883Z,1008.04
2019-03-30T10:34:42.874Z,1008.07
2019-03-30T10:35:42.883Z,1008.03
2019-03-30T10:36:42.853Z,1008.06
2019-03-30T10:37:42.841Z,1007.99
2019-03-30T10:38:42.876Z,1008.01
2019-03-30T10:39:42.816Z,1007.96
2019-03-30T10:40:42.852Z,1007.96
2019-03-30T10:41:42.806Z,1007.92
2019-03-30T10:42:42.784Z,1007.91
2019-03-30T10:43:42.770Z,1007.86
2019-03-30T10:44:42.768Z,1007.95
2019-03-30T10:45:42.927Z,1007.91
2019-03-30T10:46:42.753Z,1007.90
2019-03-30T10:47:42.782Z,1007.87
2019-03-30T10:48:42.713Z,1007.86
2019-03-30T10:49:42.722Z,1007.87
2019-03-30T10:50:42.697Z,1007.90
2019-03-30T10:51:42.678Z,1007.88
2019-03-30T10:52:42.685Z,1007.91
2019-03-30T10:53:42.701Z,1007.82
2019-03-30T10:54:52.622Z,1007.90
2019-03-30T10:55:43.638Z,1007.86
2019-03-30T10:56:42.625Z,1007.88
2019-03-30T10:57:42.623Z,1007.76
2019-03-30T10:58:42.632Z,1007.82
2019-03-30T10:59:42.595Z,1007.80
2019-03-30T11:00:42.577Z,1007.81
2019-03-30T11:01:42.565Z,1007.79
2019-03-30T11:02:42.559Z,1007.75
2019-03-30T11:03:42.554Z,1007.84
2019-03-30T11:04:42.553Z,1007.76
2019-03-30T11:05:42.530Z,1007.80
2019-03-30T11:06:42.510Z,1007.71
2019-03-30T11:07:42.499Z,1007.71
2019-03-30T11:08:42.486Z,1007.69
2019-03-30T11:09:42.477Z,1007.67
2019-03-30T11:10:42.572Z,1007.71
2019-03-30T11:11:42.467Z,1007.84
2019-03-30T11:12:42.441Z,1007.76
2019-03-30T11:13:42.430Z,1007.68
2019-03-30T11:14:42.693Z,1007.57
2019-03-30T11:15:42.410Z,1007.69
2019-03-30T11:16:42.408Z,1007.65
2019-03-30T11:17:42.385Z,1007.52
2019-03-30T11:18:42.375Z,1007.53
2019-03-30T11:19:42.365Z,1007.56
2019-03-30T11:20:42.353Z,1007.64
2019-03-30T11:21:42.358Z,1007.62
2019-03-30T11:22:42.326Z,1007.58
2019-03-30T11:23:42.322Z,1007.46
2019-03-30T11:24:42.305Z,1007.51
2019-03-30T11:25:42.303Z,1007.54
2019-03-30T11:26:42.288Z,1007.53
2019-03-30T11:27:42.303Z,1007.64
2019-03-30T11:28:42.259Z,1007.48
2019-03-30T11:29:42.248Z,1007.46
2019-03-30T11:30:42.236Z,1007.38
2019-03-30T11:31:42.230Z,1007.40
2019-03-30T11:32:42.220Z,1007.51
2019-03-30T11:33:42.219Z,1007.44
2019-03-30T11:34:42.192Z,1007.42
2019-03-30T11:35:42.179Z,1007.38
2019-03-30T11:36:42.175Z,1007.38
2019-03-30T11:37:42.163Z,1007.37
2019-03-30T11:38:42.163Z,1007.38
2019-03-30T11:39:42.140Z,1007.30
2019-03-30T11:40:42.132Z,1007.33
2019-03-30T11:41:42.116Z,1007.42
2019-03-30T11:42:42.107Z,1007.31
2019-03-30T11:43:42.094Z,1007.30
2019-03-30T11:44:42.094Z,1007.26
2019-03-30T11:45:42.073Z,1007.39
2019-03-30T11:46:42.062Z,1007.32
2019-03-30T11:47:42.051Z,1007.27
2019-03-30T11:48:42.141Z,1007.31
2019-03-30T11:49:42.026Z,1007.29
2019-03-30T11:50:42.025Z,1007.24
2019-03-30T11:51:42.022Z,1007.22
2019-03-30T11:52:41.994Z,1007.16
2019-03-30T11:53:42.000Z,1007.23
2019-03-30T11:54:41.972Z,1007.22
2019-03-30T11:55:41.960Z,1007.23
2019-03-30T11:56:41.947Z,1007.15
2019-03-30T11:57:41.951Z,1007.24
2019-03-30T11:58:41.927Z,1007.16
2019-03-30T11:59:41.912Z,1007.15
2019-03-30T12:00:41.902Z,1007.19
2019-03-30T12:01:41.890Z,1007.23
2019-03-30T12:02:41.884Z,1007.14
2019-03-30T12:03:41.886Z,1007.21
2019-03-30T12:04:41.857Z,1007.22
2019-03-30T12:05:41.842Z,1007.22